sensor_id;sensor_type;location;lat;lon;timestamp;P1;durP1;ratioP1;P2;durP2;ratioP2
19944;SDS011;10134;50.952;6.930;2023-11-21T00:00:56;8.20;;;4.60;;
19944;SDS011;10134;50.952;6.930;2023-11-21T00:03:25;9.48;;;5.93;;
19944;SDS011;10134;50.952;6.930;2023-11-21T00:05:55;8.00;;;4.80;;
19944;SDS011;10134;50.952;6.930;2023-11-21T00:08:24;9.15;;;5.60;;
19944;SDS011;10134;50.952;6.930;2023-11-21T00:10:52;15.40;;;6.22;;
19944;SDS011;10134;50.952;6.930;2023-11-21T00:13:23;8.35;;;6.15;;
19944;SDS011;10134;50.952;6.930;2023-11-21T00:15:52;11.35;;;6.22;;
19944;SDS011;10134;50.952;6.930;2023-11-21T00:18:21;9.75;;;6.43;;
19944;SDS011;10134;50.952;6.930;2023-11-21T00:20:49;9.38;;;5.90;;
19944;SDS011;10134;50.952;6.930;2023-11-21T00:23:18;10.75;;;6.25;;
19944;SDS011;10134;50.952;6.930;2023-11-21T00:25:47;9.85;;;6.32;;
19944;SDS011;10134;50.952;6.930;2023-11-21T00:28:15;12.90;;;6.75;;
19944;SDS011;10134;50.952;6.930;2023-11-21T00:30:45;15.77;;;7.68;;
19944;SDS011;10134;50.952;6.930;2023-11-21T00:33:14;12.18;;;7.20;;
19944;SDS011;10134;50.952;6.930;2023-11-21T00:35:43;9.18;;;6.50;;
19944;SDS011;10134;50.952;6.930;2023-11-21T00:38:11;12.02;;;6.30;;
19944;SDS011;10134;50.952;6.930;2023-11-21T00:40:40;13.13;;;7.07;;
19944;SDS011;10134;50.952;6.930;2023-11-21T00:43:09;12.05;;;7.68;;
19944;SDS011;10134;50.952;6.930;2023-11-21T00:45:38;15.20;;;7.53;;
19944;SDS011;10134;50.952;6.930;2023-11-21T00:48:08;12.70;;;7.32;;
19944;SDS011;10134;50.952;6.930;2023-11-21T00:50:37;10.25;;;7.00;;
19944;SDS011;10134;50.952;6.930;2023-11-21T00:53:05;16.60;;;8.38;;
19944;SDS011;10134;50.952;6.930;2023-11-21T00:55:34;13.65;;;7.82;;
19944;SDS011;10134;50.952;6.930;2023-11-21T00:58:03;10.65;;;7.35;;
19944;SDS011;10134;50.952;6.930;2023-11-21T01:00:33;13.60;;;7.03;;
19944;SDS011;10134;50.952;6.930;2023-11-21T01:03:02;13.07;;;6.82;;
19944;SDS011;10134;50.952;6.930;2023-11-21T01:05:32;19.40;;;8.32;;
19944;SDS011;10134;50.952;6.930;2023-11-21T01:08:01;12.13;;;7.13;;
19944;SDS011;10134;50.952;6.930;2023-11-21T01:10:30;14.05;;;7.90;;
19944;SDS011;10134;50.952;6.930;2023-11-21T01:12:59;12.18;;;8.07;;
19944;SDS011;10134;50.952;6.930;2023-11-21T01:15:28;11.98;;;7.97;;
19944;SDS011;10134;50.952;6.930;2023-11-21T01:17:57;11.82;;;7.53;;
19944;SDS011;10134;50.952;6.930;2023-11-21T01:20:26;14.30;;;7.55;;
19944;SDS011;10134;50.952;6.930;2023-11-21T01:22:56;16.40;;;7.57;;
19944;SDS011;10134;50.952;6.930;2023-11-21T01:25:25;13.55;;;6.60;;
19944;SDS011;10134;50.952;6.930;2023-11-21T01:27:54;14.75;;;8.55;;
19944;SDS011;10134;50.952;6.930;2023-11-21T01:30:22;11.98;;;7.72;;
19944;SDS011;10134;50.952;6.930;2023-11-21T01:32:52;11.50;;;7.13;;
19944;SDS011;10134;50.952;6.930;2023-11-21T01:35:21;12.07;;;7.45;;
19944;SDS011;10134;50.952;6.930;2023-11-21T01:37:49;16.08;;;7.90;;
19944;SDS011;10134;50.952;6.930;2023-11-21T01:40:20;13.15;;;7.30;;
19944;SDS011;10134;50.952;6.930;2023-11-21T01:42:48;14.65;;;8.02;;
19944;SDS011;10134;50.952;6.930;2023-11-21T01:45:17;11.32;;;7.90;;
19944;SDS011;10134;50.952;6.930;2023-11-21T01:47:46;12.35;;;7.43;;
19944;SDS011;10134;50.952;6.930;2023-11-21T01:50:16;13.23;;;7.57;;
19944;SDS011;10134;50.952;6.930;2023-11-21T01:52:45;15.82;;;8.48;;
19944;SDS011;10134;50.952;6.930;2023-11-21T01:55:16;14.77;;;7.80;;
19944;SDS011;10134;50.952;6.930;2023-11-21T01:57:56;15.23;;;7.78;;
19944;SDS011;10134;50.952;6.930;2023-11-21T02:00:28;12.23;;;7.63;;
19944;SDS011;10134;50.952;6.930;2023-11-21T02:02:57;15.65;;;7.45;;
19944;SDS011;10134;50.952;6.930;2023-11-21T02:05:26;14.52;;;7.90;;
19944;SDS011;10134;50.952;6.930;2023-11-21T02:07:58;12.82;;;8.10;;
19944;SDS011;10134;50.952;6.930;2023-11-21T02:10:27;19.27;;;9.45;;
19944;SDS011;10134;50.952;6.930;2023-11-21T02:12:59;19.00;;;9.18;;
19944;SDS011;10134;50.952;6.930;2023-11-21T02:15:30;13.27;;;7.93;;
19944;SDS011;10134;50.952;6.930;2023-11-21T02:17:58;13.88;;;9.20;;
19944;SDS011;10134;50.952;6.930;2023-11-21T02:20:30;17.38;;;9.88;;
19944;SDS011;10134;50.952;6.930;2023-11-21T02:23:04;24.00;;;9.43;;
19944;SDS011;10134;50.952;6.930;2023-11-21T02:25:34;17.73;;;9.30;;
19944;SDS011;10134;50.952;6.930;2023-11-21T02:28:04;14.57;;;8.45;;
19944;SDS011;10134;50.952;6.930;2023-11-21T02:30:33;20.15;;;10.25;;
19944;SDS011;10134;50.952;6.930;2023-11-21T02:33:04;18.25;;;10.13;;
19944;SDS011;10134;50.952;6.930;2023-11-21T02:35:33;21.88;;;10.60;;
19944;SDS011;10134;50.952;6.930;2023-11-21T02:38:02;17.85;;;10.95;;
19944;SDS011;10134;50.952;6.930;2023-11-21T02:40:32;25.45;;;11.20;;
19944;SDS011;10134;50.952;6.930;2023-11-21T02:43:00;22.48;;;12.48;;
19944;SDS011;10134;50.952;6.930;2023-11-21T02:45:29;22.00;;;12.13;;
19944;SDS011;10134;50.952;6.930;2023-11-21T02:47:58;17.90;;;10.55;;
19944;SDS011;10134;50.952;6.930;2023-11-21T02:50:27;17.77;;;9.88;;
19944;SDS011;10134;50.952;6.930;2023-11-21T02:52:56;15.20;;;9.25;;
19944;SDS011;10134;50.952;6.930;2023-11-21T02:55:27;16.77;;;9.48;;
19944;SDS011;10134;50.952;6.930;2023-11-21T02:57:57;15.27;;;8.55;;
19944;SDS011;10134;50.952;6.930;2023-11-21T03:00:27;17.95;;;10.18;;
19944;SDS011;10134;50.952;6.930;2023-11-21T03:02:56;21.00;;;9.93;;
19944;SDS011;10134;50.952;6.930;2023-11-21T03:05:25;16.00;;;9.10;;
19944;SDS011;10134;50.952;6.930;2023-11-21T03:07:55;15.88;;;9.32;;
19944;SDS011;10134;50.952;6.930;2023-11-21T03:10:25;13.55;;;8.50;;
19944;SDS011;10134;50.952;6.930;2023-11-21T03:12:59;13.75;;;9.38;;
19944;SDS011;10134;50.952;6.930;2023-11-21T03:15:27;18.88;;;9.80;;
19944;SDS011;10134;50.952;6.930;2023-11-21T03:17:58;15.73;;;9.55;;
19944;SDS011;10134;50.952;6.930;2023-11-21T03:20:26;19.20;;;10.40;;
19944;SDS011;10134;50.952;6.930;2023-11-21T03:22:56;17.10;;;9.88;;
19944;SDS011;10134;50.952;6.930;2023-11-21T03:25:26;16.60;;;9.65;;
19944;SDS011;10134;50.952;6.930;2023-11-21T03:27:55;17.48;;;9.93;;
19944;SDS011;10134;50.952;6.930;2023-11-21T03:30:26;15.82;;;9.65;;
19944;SDS011;10134;50.952;6.930;2023-11-21T03:32:54;16.38;;;9.90;;
19944;SDS011;10134;50.952;6.930;2023-11-21T03:35:23;16.77;;;10.05;;
19944;SDS011;10134;50.952;6.930;2023-11-21T03:37:53;15.30;;;9.82;;
19944;SDS011;10134;50.952;6.930;2023-11-21T03:40:22;19.85;;;10.32;;
19944;SDS011;10134;50.952;6.930;2023-11-21T03:42:50;16.83;;;9.77;;
19944;SDS011;10134;50.952;6.930;2023-11-21T03:45:21;16.85;;;10.15;;
19944;SDS011;10134;50.952;6.930;2023-11-21T03:47:51;13.70;;;8.63;;
19944;SDS011;10134;50.952;6.930;2023-11-21T03:50:20;16.20;;;10.02;;
19944;SDS011;10134;50.952;6.930;2023-11-21T03:52:49;13.52;;;9.30;;
19944;SDS011;10134;50.952;6.930;2023-11-21T03:55:18;21.25;;;10.73;;
19944;SDS011;10134;50.952;6.930;2023-11-21T03:57:46;21.10;;;11.00;;
19944;SDS011;10134;50.952;6.930;2023-11-21T04:00:15;23.63;;;9.82;;
19944;SDS011;10134;50.952;6.930;2023-11-21T04:02:45;19.20;;;11.15;;
19944;SDS011;10134;50.952;6.930;2023-11-21T04:05:15;18.83;;;10.85;;
19944;SDS011;10134;50.952;6.930;2023-11-21T04:07:44;21.13;;;11.20;;
19944;SDS011;10134;50.952;6.930;2023-11-21T04:10:12;17.30;;;10.77;;
19944;SDS011;10134;50.952;6.930;2023-11-21T04:12:42;19.38;;;11.05;;
19944;SDS011;10134;50.952;6.930;2023-11-21T04:15:12;17.73;;;11.35;;
19944;SDS011;10134;50.952;6.930;2023-11-21T04:17:41;21.15;;;11.10;;
19944;SDS011;10134;50.952;6.930;2023-11-21T04:20:10;22.02;;;11.13;;
19944;SDS011;10134;50.952;6.930;2023-11-21T04:22:40;21.02;;;11.07;;
19944;SDS011;10134;50.952;6.930;2023-11-21T04:25:11;18.92;;;10.55;;
19944;SDS011;10134;50.952;6.930;2023-11-21T04:27:41;20.05;;;11.05;;
19944;SDS011;10134;50.952;6.930;2023-11-21T04:30:12;26.08;;;12.38;;
19944;SDS011;10134;50.952;6.930;2023-11-21T04:32:41;24.73;;;12.30;;
19944;SDS011;10134;50.952;6.930;2023-11-21T04:35:10;25.73;;;11.20;;
19944;SDS011;10134;50.952;6.930;2023-11-21T04:37:40;22.30;;;11.38;;
19944;SDS011;10134;50.952;6.930;2023-11-21T04:40:09;19.80;;;10.10;;
19944;SDS011;10134;50.952;6.930;2023-11-21T04:42:38;19.33;;;11.45;;
19944;SDS011;10134;50.952;6.930;2023-11-21T04:45:08;23.55;;;11.55;;
19944;SDS011;10134;50.952;6.930;2023-11-21T04:47:40;21.83;;;10.50;;
19944;SDS011;10134;50.952;6.930;2023-11-21T04:50:09;17.08;;;10.60;;
19944;SDS011;10134;50.952;6.930;2023-11-21T04:52:39;22.33;;;10.45;;
19944;SDS011;10134;50.952;6.930;2023-11-21T04:55:08;20.13;;;10.07;;
19944;SDS011;10134;50.952;6.930;2023-11-21T04:57:38;19.23;;;10.45;;
19944;SDS011;10134;50.952;6.930;2023-11-21T05:00:09;15.57;;;10.52;;
19944;SDS011;10134;50.952;6.930;2023-11-21T05:02:39;22.40;;;11.30;;
19944;SDS011;10134;50.952;6.930;2023-11-21T05:05:09;18.45;;;10.75;;
19944;SDS011;10134;50.952;6.930;2023-11-21T05:07:39;25.10;;;10.75;;
19944;SDS011;10134;50.952;6.930;2023-11-21T05:10:08;19.58;;;11.40;;
19944;SDS011;10134;50.952;6.930;2023-11-21T05:12:39;20.55;;;11.27;;
19944;SDS011;10134;50.952;6.930;2023-11-21T05:15:08;23.95;;;12.13;;
19944;SDS011;10134;50.952;6.930;2023-11-21T05:17:40;22.08;;;11.45;;
19944;SDS011;10134;50.952;6.930;2023-11-21T05:20:10;21.48;;;12.07;;
19944;SDS011;10134;50.952;6.930;2023-11-21T05:22:42;22.98;;;11.07;;
19944;SDS011;10134;50.952;6.930;2023-11-21T05:25:11;18.98;;;11.13;;
19944;SDS011;10134;50.952;6.930;2023-11-21T05:27:40;20.23;;;10.68;;
19944;SDS011;10134;50.952;6.930;2023-11-21T05:30:08;16.35;;;9.80;;
19944;SDS011;10134;50.952;6.930;2023-11-21T05:32:39;19.02;;;10.82;;
19944;SDS011;10134;50.952;6.930;2023-11-21T05:35:10;18.08;;;9.23;;
19944;SDS011;10134;50.952;6.930;2023-11-21T05:37:44;17.10;;;9.57;;
19944;SDS011;10134;50.952;6.930;2023-11-21T05:40:14;21.65;;;10.32;;
19944;SDS011;10134;50.952;6.930;2023-11-21T05:42:43;20.27;;;10.57;;
19944;SDS011;10134;50.952;6.930;2023-11-21T05:45:12;18.52;;;9.95;;
19944;SDS011;10134;50.952;6.930;2023-11-21T05:47:43;20.88;;;10.57;;
19944;SDS011;10134;50.952;6.930;2023-11-21T05:50:13;23.17;;;11.27;;
19944;SDS011;10134;50.952;6.930;2023-11-21T05:52:45;32.08;;;11.43;;
19944;SDS011;10134;50.952;6.930;2023-11-21T05:55:14;20.90;;;12.23;;
19944;SDS011;10134;50.952;6.930;2023-11-21T05:57:43;18.38;;;10.07;;
19944;SDS011;10134;50.952;6.930;2023-11-21T06:00:17;21.20;;;10.98;;
19944;SDS011;10134;50.952;6.930;2023-11-21T06:02:48;21.50;;;11.38;;
19944;SDS011;10134;50.952;6.930;2023-11-21T06:05:21;18.27;;;10.77;;
19944;SDS011;10134;50.952;6.930;2023-11-21T06:07:54;19.60;;;10.07;;
19944;SDS011;10134;50.952;6.930;2023-11-21T06:10:25;21.10;;;11.30;;
19944;SDS011;10134;50.952;6.930;2023-11-21T06:12:55;20.45;;;11.00;;
19944;SDS011;10134;50.952;6.930;2023-11-21T06:15:29;22.30;;;10.63;;
19944;SDS011;10134;50.952;6.930;2023-11-21T06:17:58;19.40;;;11.32;;
19944;SDS011;10134;50.952;6.930;2023-11-21T06:20:26;19.55;;;10.23;;
19944;SDS011;10134;50.952;6.930;2023-11-21T06:22:56;20.05;;;10.02;;
19944;SDS011;10134;50.952;6.930;2023-11-21T06:25:25;19.08;;;10.63;;
19944;SDS011;10134;50.952;6.930;2023-11-21T06:27:54;20.38;;;10.20;;
19944;SDS011;10134;50.952;6.930;2023-11-21T06:30:23;22.23;;;10.65;;
19944;SDS011;10134;50.952;6.930;2023-11-21T06:32:52;19.20;;;9.82;;
19944;SDS011;10134;50.952;6.930;2023-11-21T06:35:20;21.70;;;12.00;;
19944;SDS011;10134;50.952;6.930;2023-11-21T06:37:49;22.67;;;10.82;;
19944;SDS011;10134;50.952;6.930;2023-11-21T06:40:20;24.17;;;11.77;;
19944;SDS011;10134;50.952;6.930;2023-11-21T06:42:49;25.42;;;11.88;;
19944;SDS011;10134;50.952;6.930;2023-11-21T06:45:18;23.02;;;12.10;;
19944;SDS011;10134;50.952;6.930;2023-11-21T06:47:47;27.27;;;11.55;;
19944;SDS011;10134;50.952;6.930;2023-11-21T06:50:17;20.73;;;10.30;;
19944;SDS011;10134;50.952;6.930;2023-11-21T06:52:46;23.92;;;11.05;;
19944;SDS011;10134;50.952;6.930;2023-11-21T06:55:15;26.77;;;11.98;;
19944;SDS011;10134;50.952;6.930;2023-11-21T06:57:45;27.88;;;12.80;;
19944;SDS011;10134;50.952;6.930;2023-11-21T07:00:15;21.35;;;11.85;;
19944;SDS011;10134;50.952;6.930;2023-11-21T07:02:45;21.65;;;11.13;;
19944;SDS011;10134;50.952;6.930;2023-11-21T07:05:14;22.52;;;10.95;;
19944;SDS011;10134;50.952;6.930;2023-11-21T07:07:47;30.25;;;14.32;;
19944;SDS011;10134;50.952;6.930;2023-11-21T07:10:17;25.55;;;13.27;;
19944;SDS011;10134;50.952;6.930;2023-11-21T07:12:47;28.98;;;13.63;;
19944;SDS011;10134;50.952;6.930;2023-11-21T07:15:16;31.50;;;14.70;;
19944;SDS011;10134;50.952;6.930;2023-11-21T07:17:45;27.67;;;13.75;;
19944;SDS011;10134;50.952;6.930;2023-11-21T07:20:15;29.42;;;15.07;;
19944;SDS011;10134;50.952;6.930;2023-11-21T07:22:45;30.42;;;15.23;;
19944;SDS011;10134;50.952;6.930;2023-11-21T07:25:13;26.83;;;13.75;;
19944;SDS011;10134;50.952;6.930;2023-11-21T07:27:43;29.73;;;14.88;;
19944;SDS011;10134;50.952;6.930;2023-11-21T07:30:13;26.00;;;12.82;;
19944;SDS011;10134;50.952;6.930;2023-11-21T07:32:42;29.85;;;14.95;;
19944;SDS011;10134;50.952;6.930;2023-11-21T07:35:12;29.08;;;15.05;;
19944;SDS011;10134;50.952;6.930;2023-11-21T07:37:40;30.55;;;14.70;;
19944;SDS011;10134;50.952;6.930;2023-11-21T07:40:10;31.92;;;14.15;;
19944;SDS011;10134;50.952;6.930;2023-11-21T07:42:40;28.05;;;14.27;;
19944;SDS011;10134;50.952;6.930;2023-11-21T07:45:10;29.08;;;14.07;;
19944;SDS011;10134;50.952;6.930;2023-11-21T07:47:40;32.33;;;15.55;;
19944;SDS011;10134;50.952;6.930;2023-11-21T07:50:10;35.28;;;15.52;;
19944;SDS011;10134;50.952;6.930;2023-11-21T07:52:40;31.52;;;15.13;;
19944;SDS011;10134;50.952;6.930;2023-11-21T07:55:09;29.48;;;15.00;;
19944;SDS011;10134;50.952;6.930;2023-11-21T07:57:38;33.55;;;16.80;;
19944;SDS011;10134;50.952;6.930;2023-11-21T08:00:07;32.25;;;16.13;;
19944;SDS011;10134;50.952;6.930;2023-11-21T08:02:38;32.08;;;14.45;;
19944;SDS011;10134;50.952;6.930;2023-11-21T08:05:10;30.80;;;16.20;;
19944;SDS011;10134;50.952;6.930;2023-11-21T08:07:51;36.55;;;15.13;;
19944;SDS011;10134;50.952;6.930;2023-11-21T08:10:19;36.33;;;17.55;;
19944;SDS011;10134;50.952;6.930;2023-11-21T08:12:49;33.97;;;15.55;;
19944;SDS011;10134;50.952;6.930;2023-11-21T08:15:18;29.63;;;13.40;;
19944;SDS011;10134;50.952;6.930;2023-11-21T08:17:48;28.30;;;14.07;;
19944;SDS011;10134;50.952;6.930;2023-11-21T08:20:17;31.08;;;14.50;;
19944;SDS011;10134;50.952;6.930;2023-11-21T08:22:46;36.63;;;15.45;;
19944;SDS011;10134;50.952;6.930;2023-11-21T08:25:15;29.98;;;15.63;;
19944;SDS011;10134;50.952;6.930;2023-11-21T08:27:47;27.10;;;13.75;;
19944;SDS011;10134;50.952;6.930;2023-11-21T08:30:16;27.70;;;13.18;;
19944;SDS011;10134;50.952;6.930;2023-11-21T08:32:46;31.08;;;14.45;;
19944;SDS011;10134;50.952;6.930;2023-11-21T08:35:16;31.92;;;15.23;;
19944;SDS011;10134;50.952;6.930;2023-11-21T08:37:45;29.13;;;15.20;;
19944;SDS011;10134;50.952;6.930;2023-11-21T08:40:14;27.83;;;14.43;;
19944;SDS011;10134;50.952;6.930;2023-11-21T08:42:44;32.33;;;15.45;;
19944;SDS011;10134;50.952;6.930;2023-11-21T08:45:13;25.65;;;13.98;;
19944;SDS011;10134;50.952;6.930;2023-11-21T08:47:44;35.05;;;15.00;;
19944;SDS011;10134;50.952;6.930;2023-11-21T08:50:15;27.77;;;14.23;;
19944;SDS011;10134;50.952;6.930;2023-11-21T08:52:43;34.15;;;14.68;;
19944;SDS011;10134;50.952;6.930;2023-11-21T08:55:14;34.00;;;15.02;;
19944;SDS011;10134;50.952;6.930;2023-11-21T08:57:43;29.70;;;14.30;;
19944;SDS011;10134;50.952;6.930;2023-11-21T09:00:13;31.60;;;15.60;;
19944;SDS011;10134;50.952;6.930;2023-11-21T09:02:43;28.88;;;13.45;;
19944;SDS011;10134;50.952;6.930;2023-11-21T09:05:15;34.65;;;15.75;;
19944;SDS011;10134;50.952;6.930;2023-11-21T09:07:44;27.42;;;14.13;;
19944;SDS011;10134;50.952;6.930;2023-11-21T09:10:15;35.28;;;14.85;;
19944;SDS011;10134;50.952;6.930;2023-11-21T09:12:44;31.60;;;15.70;;
19944;SDS011;10134;50.952;6.930;2023-11-21T09:15:13;24.77;;;14.80;;
19944;SDS011;10134;50.952;6.930;2023-11-21T09:17:42;27.67;;;14.45;;
19944;SDS011;10134;50.952;6.930;2023-11-21T09:20:12;32.25;;;16.50;;
19944;SDS011;10134;50.952;6.930;2023-11-21T09:22:43;32.70;;;16.33;;
19944;SDS011;10134;50.952;6.930;2023-11-21T09:25:13;33.67;;;16.45;;
19944;SDS011;10134;50.952;6.930;2023-11-21T09:27:43;34.97;;;17.63;;
19944;SDS011;10134;50.952;6.930;2023-11-21T09:30:13;36.72;;;16.65;;
19944;SDS011;10134;50.952;6.930;2023-11-21T09:32:42;33.03;;;14.38;;
19944;SDS011;10134;50.952;6.930;2023-11-21T09:35:13;33.45;;;15.75;;
19944;SDS011;10134;50.952;6.930;2023-11-21T09:37:44;38.10;;;15.38;;
19944;SDS011;10134;50.952;6.930;2023-11-21T09:40:16;29.80;;;15.80;;
19944;SDS011;10134;50.952;6.930;2023-11-21T09:42:53;32.75;;;14.73;;
19944;SDS011;10134;50.952;6.930;2023-11-21T09:45:25;30.95;;;14.60;;
19944;SDS011;10134;50.952;6.930;2023-11-21T09:47:55;35.10;;;17.23;;
19944;SDS011;10134;50.952;6.930;2023-11-21T09:50:25;36.65;;;15.18;;
19944;SDS011;10134;50.952;6.930;2023-11-21T09:52:57;38.45;;;16.27;;
19944;SDS011;10134;50.952;6.930;2023-11-21T09:55:32;31.40;;;15.57;;
19944;SDS011;10134;50.952;6.930;2023-11-21T09:58:03;35.72;;;15.10;;
19944;SDS011;10134;50.952;6.930;2023-11-21T10:00:34;27.02;;;13.70;;
19944;SDS011;10134;50.952;6.930;2023-11-21T10:03:06;26.20;;;13.25;;
19944;SDS011;10134;50.952;6.930;2023-11-21T10:05:35;26.90;;;13.25;;
19944;SDS011;10134;50.952;6.930;2023-11-21T10:08:07;25.55;;;13.05;;
19944;SDS011;10134;50.952;6.930;2023-11-21T10:10:37;27.75;;;12.10;;
19944;SDS011;10134;50.952;6.930;2023-11-21T10:13:12;25.85;;;11.98;;
19944;SDS011;10134;50.952;6.930;2023-11-21T10:15:44;32.25;;;13.98;;
19944;SDS011;10134;50.952;6.930;2023-11-21T10:18:17;31.38;;;13.15;;
19944;SDS011;10134;50.952;6.930;2023-11-21T10:20:46;30.15;;;13.80;;
19944;SDS011;10134;50.952;6.930;2023-11-21T10:23:21;30.00;;;13.18;;
19944;SDS011;10134;50.952;6.930;2023-11-21T10:25:51;29.95;;;13.35;;
19944;SDS011;10134;50.952;6.930;2023-11-21T10:28:21;28.60;;;14.05;;
19944;SDS011;10134;50.952;6.930;2023-11-21T10:30:50;31.35;;;13.30;;
19944;SDS011;10134;50.952;6.930;2023-11-21T10:33:26;31.67;;;14.85;;
19944;SDS011;10134;50.952;6.930;2023-11-21T10:35:56;31.02;;;14.77;;
19944;SDS011;10134;50.952;6.930;2023-11-21T10:38:28;32.15;;;14.05;;
19944;SDS011;10134;50.952;6.930;2023-11-21T10:41:04;34.53;;;14.57;;
19944;SDS011;10134;50.952;6.930;2023-11-21T10:43:38;25.15;;;11.60;;
19944;SDS011;10134;50.952;6.930;2023-11-21T10:46:06;25.10;;;13.88;;
19944;SDS011;10134;50.952;6.930;2023-11-21T10:48:36;31.48;;;12.90;;
19944;SDS011;10134;50.952;6.930;2023-11-21T10:51:06;30.17;;;12.65;;
19944;SDS011;10134;50.952;6.930;2023-11-21T10:53:40;30.25;;;13.18;;
19944;SDS011;10134;50.952;6.930;2023-11-21T10:56:14;28.67;;;13.57;;
19944;SDS011;10134;50.952;6.930;2023-11-21T10:58:47;28.20;;;12.27;;
19944;SDS011;10134;50.952;6.930;2023-11-21T11:01:18;28.13;;;12.93;;
19944;SDS011;10134;50.952;6.930;2023-11-21T11:03:49;30.70;;;13.55;;
19944;SDS011;10134;50.952;6.930;2023-11-21T11:06:22;29.90;;;13.38;;
19944;SDS011;10134;50.952;6.930;2023-11-21T11:08:58;29.58;;;13.82;;
19944;SDS011;10134;50.952;6.930;2023-11-21T11:11:29;29.70;;;12.60;;
19944;SDS011;10134;50.952;6.930;2023-11-21T11:13:58;31.92;;;12.32;;
19944;SDS011;10134;50.952;6.930;2023-11-21T11:16:27;29.70;;;14.10;;
19944;SDS011;10134;50.952;6.930;2023-11-21T11:18:58;28.88;;;13.77;;
19944;SDS011;10134;50.952;6.930;2023-11-21T11:21:28;37.83;;;13.50;;
19944;SDS011;10134;50.952;6.930;2023-11-21T11:24:13;31.00;;;13.38;;
19944;SDS011;10134;50.952;6.930;2023-11-21T11:26:51;29.80;;;13.63;;
19944;SDS011;10134;50.952;6.930;2023-11-21T11:29:27;35.80;;;14.35;;
19944;SDS011;10134;50.952;6.930;2023-11-21T11:32:04;29.92;;;13.70;;
19944;SDS011;10134;50.952;6.930;2023-11-21T11:34:41;38.42;;;13.43;;
19944;SDS011;10134;50.952;6.930;2023-11-21T11:37:16;29.80;;;13.02;;
19944;SDS011;10134;50.952;6.930;2023-11-21T11:39:48;30.38;;;13.35;;
19944;SDS011;10134;50.952;6.930;2023-11-21T11:42:17;25.83;;;12.18;;
19944;SDS011;10134;50.952;6.930;2023-11-21T11:44:50;25.10;;;11.95;;
19944;SDS011;10134;50.952;6.930;2023-11-21T11:47:21;29.17;;;11.80;;
19944;SDS011;10134;50.952;6.930;2023-11-21T11:50:05;34.22;;;13.45;;
19944;SDS011;10134;50.952;6.930;2023-11-21T11:52:38;21.63;;;11.45;;
19944;SDS011;10134;50.952;6.930;2023-11-21T11:55:10;25.40;;;10.95;;
19944;SDS011;10134;50.952;6.930;2023-11-21T11:57:41;20.60;;;11.43;;
19944;SDS011;10134;50.952;6.930;2023-11-21T12:00:14;24.95;;;12.82;;
19944;SDS011;10134;50.952;6.930;2023-11-21T12:02:47;25.10;;;11.63;;
19944;SDS011;10134;50.952;6.930;2023-11-21T12:05:17;28.73;;;11.98;;
19944;SDS011;10134;50.952;6.930;2023-11-21T12:07:48;30.70;;;12.70;;
19944;SDS011;10134;50.952;6.930;2023-11-21T12:10:21;22.20;;;10.40;;
19944;SDS011;10134;50.952;6.930;2023-11-21T12:12:53;25.63;;;12.10;;
19944;SDS011;10134;50.952;6.930;2023-11-21T12:15:22;26.48;;;12.40;;
19944;SDS011;10134;50.952;6.930;2023-11-21T12:17:56;30.30;;;11.63;;
19944;SDS011;10134;50.952;6.930;2023-11-21T12:20:26;25.85;;;12.55;;
19944;SDS011;10134;50.952;6.930;2023-11-21T12:22:56;35.05;;;13.70;;
19944;SDS011;10134;50.952;6.930;2023-11-21T12:25:28;26.45;;;12.40;;
19944;SDS011;10134;50.952;6.930;2023-11-21T12:27:59;25.63;;;11.57;;
19944;SDS011;10134;50.952;6.930;2023-11-21T12:30:30;25.40;;;12.35;;
19944;SDS011;10134;50.952;6.930;2023-11-21T12:33:02;30.65;;;13.10;;
19944;SDS011;10134;50.952;6.930;2023-11-21T12:35:34;32.92;;;14.35;;
19944;SDS011;10134;50.952;6.930;2023-11-21T12:38:04;33.03;;;13.18;;
19944;SDS011;10134;50.952;6.930;2023-11-21T12:40:38;28.75;;;13.20;;
19944;SDS011;10134;50.952;6.930;2023-11-21T12:43:06;30.90;;;14.57;;
19944;SDS011;10134;50.952;6.930;2023-11-21T12:45:36;37.85;;;14.10;;
19944;SDS011;10134;50.952;6.930;2023-11-21T12:48:05;35.97;;;15.52;;
19944;SDS011;10134;50.952;6.930;2023-11-21T12:50:36;35.03;;;16.02;;
19944;SDS011;10134;50.952;6.930;2023-11-21T12:53:07;43.42;;;18.92;;
19944;SDS011;10134;50.952;6.930;2023-11-21T12:55:40;31.73;;;14.43;;
19944;SDS011;10134;50.952;6.930;2023-11-21T12:58:09;38.70;;;15.90;;
19944;SDS011;10134;50.952;6.930;2023-11-21T13:00:42;39.60;;;17.35;;
19944;SDS011;10134;50.952;6.930;2023-11-21T13:03:12;32.50;;;15.63;;
19944;SDS011;10134;50.952;6.930;2023-11-21T13:05:46;32.50;;;17.50;;
19944;SDS011;10134;50.952;6.930;2023-11-21T13:08:19;35.40;;;16.60;;
19944;SDS011;10134;50.952;6.930;2023-11-21T13:10:52;36.67;;;16.58;;
19944;SDS011;10134;50.952;6.930;2023-11-21T13:13:23;35.22;;;16.60;;
19944;SDS011;10134;50.952;6.930;2023-11-21T13:15:56;38.15;;;15.85;;
19944;SDS011;10134;50.952;6.930;2023-11-21T13:18:30;38.40;;;15.85;;
19944;SDS011;10134;50.952;6.930;2023-11-21T13:21:00;33.38;;;15.38;;
19944;SDS011;10134;50.952;6.930;2023-11-21T13:23:34;37.90;;;16.63;;
19944;SDS011;10134;50.952;6.930;2023-11-21T13:26:06;37.05;;;16.77;;
19944;SDS011;10134;50.952;6.930;2023-11-21T13:28:36;38.67;;;16.58;;
19944;SDS011;10134;50.952;6.930;2023-11-21T13:31:06;34.05;;;15.75;;
19944;SDS011;10134;50.952;6.930;2023-11-21T13:33:48;43.85;;;18.50;;
19944;SDS011;10134;50.952;6.930;2023-11-21T13:36:23;39.17;;;16.52;;
19944;SDS011;10134;50.952;6.930;2023-11-21T13:38:57;31.13;;;15.80;;
19944;SDS011;10134;50.952;6.930;2023-11-21T13:41:33;35.92;;;15.20;;
19944;SDS011;10134;50.952;6.930;2023-11-21T13:44:02;34.00;;;16.63;;
19944;SDS011;10134;50.952;6.930;2023-11-21T13:46:43;33.83;;;15.82;;
19944;SDS011;10134;50.952;6.930;2023-11-21T13:49:14;34.63;;;15.88;;
19944;SDS011;10134;50.952;6.930;2023-11-21T13:51:44;38.17;;;16.58;;
19944;SDS011;10134;50.952;6.930;2023-11-21T13:54:15;35.88;;;15.45;;
19944;SDS011;10134;50.952;6.930;2023-11-21T13:56:47;43.53;;;16.75;;
19944;SDS011;10134;50.952;6.930;2023-11-21T13:59:17;34.17;;;15.68;;
19944;SDS011;10134;50.952;6.930;2023-11-21T14:01:50;34.22;;;15.88;;
19944;SDS011;10134;50.952;6.930;2023-11-21T14:04:24;45.20;;;17.83;;
19944;SDS011;10134;50.952;6.930;2023-11-21T14:07:14;38.75;;;16.05;;
19944;SDS011;10134;50.952;6.930;2023-11-21T14:09:53;41.90;;;16.75;;
19944;SDS011;10134;50.952;6.930;2023-11-21T14:12:24;41.70;;;17.48;;
19944;SDS011;10134;50.952;6.930;2023-11-21T14:14:53;36.63;;;16.63;;
19944;SDS011;10134;50.952;6.930;2023-11-21T14:17:22;36.92;;;15.68;;
19944;SDS011;10134;50.952;6.930;2023-11-21T14:19:51;34.67;;;14.98;;
19944;SDS011;10134;50.952;6.930;2023-11-21T14:22:22;33.60;;;15.00;;
19944;SDS011;10134;50.952;6.930;2023-11-21T14:24:53;37.53;;;14.07;;
19944;SDS011;10134;50.952;6.930;2023-11-21T14:27:27;33.28;;;14.30;;
19944;SDS011;10134;50.952;6.930;2023-11-21T14:29:56;25.73;;;13.52;;
19944;SDS011;10134;50.952;6.930;2023-11-21T14:32:25;37.95;;;15.88;;
19944;SDS011;10134;50.952;6.930;2023-11-21T14:34:54;44.17;;;16.98;;
19944;SDS011;10134;50.952;6.930;2023-11-21T14:37:23;39.35;;;17.23;;
19944;SDS011;10134;50.952;6.930;2023-11-21T14:39:52;43.45;;;16.38;;
19944;SDS011;10134;50.952;6.930;2023-11-21T14:42:21;41.67;;;15.48;;
19944;SDS011;10134;50.952;6.930;2023-11-21T14:44:55;30.70;;;14.80;;